sensor_id;sensor_type;location;lat;lon;timestamp;temperature;humidity
22838;DHT22;11585;51.450;-0.240;2022-09-17T11:58:52;13.90;99.90
22838;DHT22;11585;51.450;-0.240;2022-09-17T12:01:36;14.00;99.90
22838;DHT22;11585;51.450;-0.240;2022-09-17T12:04:43;14.10;99.90
22838;DHT22;11585;51.450;-0.240;2022-09-17T12:07:33;14.10;99.90
22838;DHT22;11585;51.450;-0.240;2022-09-17T12:22:16;14.50;99.90
22838;DHT22;11585;51.450;-0.240;2022-09-17T12:24:44;14.50;99.90
22838;DHT22;11585;51.450;-0.240;2022-09-17T12:30:31;14.60;99.90
22838;DHT22;11585;51.450;-0.240;2022-09-17T12:33:29;14.90;99.90
22838;DHT22;11585;51.450;-0.240;2022-09-17T12:36:30;14.80;99.90
22838;DHT22;11585;51.450;-0.240;2022-09-17T12:41:47;14.90;99.90
22838;DHT22;11585;51.450;-0.240;2022-09-17T12:52:34;15.10;99.90
22838;DHT22;11585;51.450;-0.240;2022-09-17T13:00:19;15.30;99.90
22838;DHT22;11585;51.450;-0.240;2022-09-17T13:09:02;15.50;99.90
22838;DHT22;11585;51.450;-0.240;2022-09-17T13:16:51;15.60;99.90
22838;DHT22;11585;51.450;-0.240;2022-09-17T13:19:29;15.70;99.90
22838;DHT22;11585;51.450;-0.240;2022-09-17T13:22:03;15.70;99.90
22838;DHT22;11585;51.450;-0.240;2022-09-17T13:24:32;15.70;99.90
22838;DHT22;11585;51.450;-0.240;2022-09-17T13:27:01;15.80;99.90
22838;DHT22;11585;51.450;-0.240;2022-09-17T13:40:32;15.90;99.90
22838;DHT22;11585;51.450;-0.240;2022-09-17T13:45:27;16.00;99.90
22838;DHT22;11585;51.450;-0.240;2022-09-17T13:50:37;16.10;99.90
22838;DHT22;11585;51.450;-0.240;2022-09-17T13:55:55;16.20;99.90
22838;DHT22;11585;51.450;-0.240;2022-09-17T13:58:35;16.20;99.90
22838;DHT22;11585;51.450;-0.240;2022-09-17T14:01:05;16.30;99.90
22838;DHT22;11585;51.450;-0.240;2022-09-17T14:24:23;16.60;99.90
22838;DHT22;11585;51.450;-0.240;2022-09-17T14:35:45;16.70;99.90
22838;DHT22;11585;51.450;-0.240;2022-09-17T14:48:48;16.80;99.90
22838;DHT22;11585;51.450;-0.240;2022-09-17T14:53:48;16.90;99.90
22838;DHT22;11585;51.450;-0.240;2022-09-17T14:58:51;16.90;99.90
22838;DHT22;11585;51.450;-0.240;2022-09-17T15:01:26;17.00;99.90
22838;DHT22;11585;51.450;-0.240;2022-09-17T15:06:41;17.00;99.90
22838;DHT22;11585;51.450;-0.240;2022-09-17T15:09:22;17.10;99.90
22838;DHT22;11585;51.450;-0.240;2022-09-17T15:11:53;17.10;99.90
22838;DHT22;11585;51.450;-0.240;2022-09-17T15:14:25;17.10;99.90
22838;DHT22;11585;51.450;-0.240;2022-09-17T15:16:54;17.10;99.90
22838;DHT22;11585;51.450;-0.240;2022-09-17T15:19:38;17.20;99.90
22838;DHT22;11585;51.450;-0.240;2022-09-17T15:22:11;17.20;99.90
22838;DHT22;11585;51.450;-0.240;2022-09-17T15:24:53;17.20;99.90
22838;DHT22;11585;51.450;-0.240;2022-09-17T15:30:00;17.30;99.90
22838;DHT22;11585;51.450;-0.240;2022-09-17T15:32:26;17.30;99.90
22838;DHT22;11585;51.450;-0.240;2022-09-17T15:38:01;17.40;99.90
22838;DHT22;11585;51.450;-0.240;2022-09-17T15:45:54;17.40;99.90
22838;DHT22;11585;51.450;-0.240;2022-09-17T15:48:36;17.50;99.90
22838;DHT22;11585;51.450;-0.240;2022-09-17T15:51:11;17.40;99.90
22838;DHT22;11585;51.450;-0.240;2022-09-17T15:53:50;17.50;99.90
22838;DHT22;11585;51.450;-0.240;2022-09-17T15:56:18;17.50;99.90
22838;DHT22;11585;51.450;-0.240;2022-09-17T16:08:43;17.50;99.90
22838;DHT22;11585;51.450;-0.240;2022-09-17T16:11:12;17.50;99.90
22838;DHT22;11585;51.450;-0.240;2022-09-17T16:13:38;17.50;99.90
22838;DHT22;11585;51.450;-0.240;2022-09-17T16:16:04;17.50;99.90
22838;DHT22;11585;51.450;-0.240;2022-09-17T16:18:30;17.50;99.90
22838;DHT22;11585;51.450;-0.240;2022-09-17T16:20:55;17.50;99.90
22838;DHT22;11585;51.450;-0.240;2022-09-17T16:23:21;17.50;99.90
22838;DHT22;11585;51.450;-0.240;2022-09-17T16:25:47;17.60;99.90
22838;DHT22;11585;51.450;-0.240;2022-09-17T16:28:19;17.50;99.90
22838;DHT22;11585;51.450;-0.240;2022-09-17T16:30:46;17.50;99.90
22838;DHT22;11585;51.450;-0.240;2022-09-17T16:33:16;17.60;99.90
22838;DHT22;11585;51.450;-0.240;2022-09-17T16:35:44;17.50;99.90
22838;DHT22;11585;51.450;-0.240;2022-09-17T16:38:12;17.60;99.90
22838;DHT22;11585;51.450;-0.240;2022-09-17T16:40:43;17.50;99.90
22838;DHT22;11585;51.450;-0.240;2022-09-17T16:43:09;17.60;99.90
22838;DHT22;11585;51.450;-0.240;2022-09-17T16:45:35;17.60;99.90
22838;DHT22;11585;51.450;-0.240;2022-09-17T16:48:03;17.60;99.90
22838;DHT22;11585;51.450;-0.240;2022-09-17T16:50:29;17.50;99.90
22838;DHT22;11585;51.450;-0.240;2022-09-17T16:52:55;17.50;99.90
22838;DHT22;11585;51.450;-0.240;2022-09-17T16:55:21;17.50;99.90
22838;DHT22;11585;51.450;-0.240;2022-09-17T16:58:12;17.60;99.90
22838;DHT22;11585;51.450;-0.240;2022-09-17T17:00:41;17.60;99.90
22838;DHT22;11585;51.450;-0.240;2022-09-17T17:03:08;17.50;99.90
22838;DHT22;11585;51.450;-0.240;2022-09-17T17:05:35;17.50;99.90
22838;DHT22;11585;51.450;-0.240;2022-09-17T17:08:02;17.50;99.90
22838;DHT22;11585;51.450;-0.240;2022-09-17T17:10:27;17.50;99.90
22838;DHT22;11585;51.450;-0.240;2022-09-17T17:12:53;17.60;99.90
22838;DHT22;11585;51.450;-0.240;2022-09-17T17:15:19;17.60;99.90
22838;DHT22;11585;51.450;-0.240;2022-09-17T17:17:49;17.50;99.90
22838;DHT22;11585;51.450;-0.240;2022-09-17T17:20:15;17.50;99.90
22838;DHT22;11585;51.450;-0.240;2022-09-17T17:22:42;17.50;99.90
22838;DHT22;11585;51.450;-0.240;2022-09-17T17:25:09;17.50;99.90
22838;DHT22;11585;51.450;-0.240;2022-09-17T17:27:36;17.50;99.90
22838;DHT22;11585;51.450;-0.240;2022-09-17T17:30:04;17.50;99.90
22838;DHT22;11585;51.450;-0.240;2022-09-17T17:32:32;17.50;99.90
22838;DHT22;11585;51.450;-0.240;2022-09-17T17:34:58;17.40;99.90
22838;DHT22;11585;51.450;-0.240;2022-09-17T17:37:24;17.50;99.90
22838;DHT22;11585;51.450;-0.240;2022-09-17T17:39:53;17.50;99.90
22838;DHT22;11585;51.450;-0.240;2022-09-17T17:42:20;17.50;99.90
22838;DHT22;11585;51.450;-0.240;2022-09-17T17:44:46;17.50;99.90
22838;DHT22;11585;51.450;-0.240;2022-09-17T17:47:21;17.90;99.90
22838;DHT22;11585;51.450;-0.240;2022-09-17T17:49:47;17.50;99.90
22838;DHT22;11585;51.450;-0.240;2022-09-17T17:52:13;17.40;99.90
22838;DHT22;11585;51.450;-0.240;2022-09-17T17:54:38;17.50;99.90
22838;DHT22;11585;51.450;-0.240;2022-09-17T17:57:04;17.50;99.90
22838;DHT22;11585;51.450;-0.240;2022-09-17T17:59:30;17.40;99.90
22838;DHT22;11585;51.450;-0.240;2022-09-17T18:01:55;17.40;99.90
22838;DHT22;11585;51.450;-0.240;2022-09-17T18:04:21;17.40;99.90
22838;DHT22;11585;51.450;-0.240;2022-09-17T18:06:47;17.40;99.90
22838;DHT22;11585;51.450;-0.240;2022-09-17T18:09:14;17.40;99.90
22838;DHT22;11585;51.450;-0.240;2022-09-17T18:11:40;17.40;99.90
22838;DHT22;11585;51.450;-0.240;2022-09-17T18:14:05;17.40;99.90
22838;DHT22;11585;51.450;-0.240;2022-09-17T18:16:31;17.30;99.90
22838;DHT22;11585;51.450;-0.240;2022-09-17T18:18:57;17.30;99.90
22838;DHT22;11585;51.450;-0.240;2022-09-17T18:21:23;17.30;99.90
22838;DHT22;11585;51.450;-0.240;2022-09-17T18:23:50;17.30;99.90
22838;DHT22;11585;51.450;-0.240;2022-09-17T18:26:24;17.30;99.90
22838;DHT22;11585;51.450;-0.240;2022-09-17T18:28:52;17.30;99.90
22838;DHT22;11585;51.450;-0.240;2022-09-17T18:31:24;17.30;99.90
22838;DHT22;11585;51.450;-0.240;2022-09-17T18:34:11;17.20;99.90
22838;DHT22;11585;51.450;-0.240;2022-09-17T18:36:38;17.20;99.90
22838;DHT22;11585;51.450;-0.240;2022-09-17T18:39:05;17.20;99.90
22838;DHT22;11585;51.450;-0.240;2022-09-17T18:41:32;17.20;99.90
22838;DHT22;11585;51.450;-0.240;2022-09-17T18:43:58;17.20;99.90
22838;DHT22;11585;51.450;-0.240;2022-09-17T18:46:25;17.20;99.90
22838;DHT22;11585;51.450;-0.240;2022-09-17T18:48:56;17.20;99.90
22838;DHT22;11585;51.450;-0.240;2022-09-17T18:51:22;17.10;99.90
22838;DHT22;11585;51.450;-0.240;2022-09-17T18:53:49;17.10;99.90
22838;DHT22;11585;51.450;-0.240;2022-09-17T18:56:21;17.10;99.90
22838;DHT22;11585;51.450;-0.240;2022-09-17T18:58:50;17.10;99.90
22838;DHT22;11585;51.450;-0.240;2022-09-17T19:01:23;17.10;99.90
22838;DHT22;11585;51.450;-0.240;2022-09-17T19:03:49;17.10;99.90
22838;DHT22;11585;51.450;-0.240;2022-09-17T19:06:15;16.60;99.90
22838;DHT22;11585;51.450;-0.240;2022-09-17T19:08:43;17.00;99.90
22838;DHT22;11585;51.450;-0.240;2022-09-17T19:11:10;17.00;99.90
22838;DHT22;11585;51.450;-0.240;2022-09-17T19:13:38;17.00;99.90
22838;DHT22;11585;51.450;-0.240;2022-09-17T19:16:05;17.00;99.90
22838;DHT22;11585;51.450;-0.240;2022-09-17T19:18:33;17.00;99.90
22838;DHT22;11585;51.450;-0.240;2022-09-17T19:21:04;16.90;99.90
22838;DHT22;11585;51.450;-0.240;2022-09-17T19:23:31;16.90;99.90
22838;DHT22;11585;51.450;-0.240;2022-09-17T19:26:27;16.90;99.90
22838;DHT22;11585;51.450;-0.240;2022-09-17T19:28:54;16.90;99.90
22838;DHT22;11585;51.450;-0.240;2022-09-17T19:31:20;16.90;99.90
22838;DHT22;11585;51.450;-0.240;2022-09-17T19:33:45;16.90;99.90
22838;DHT22;11585;51.450;-0.240;2022-09-17T19:36:14;16.80;99.90
22838;DHT22;11585;51.450;-0.240;2022-09-17T19:38:40;16.80;99.90
22838;DHT22;11585;51.450;-0.240;2022-09-17T19:41:10;16.80;99.90
22838;DHT22;11585;51.450;-0.240;2022-09-17T19:43:37;16.80;99.90
22838;DHT22;11585;51.450;-0.240;2022-09-17T19:46:06;16.70;99.90
22838;DHT22;11585;51.450;-0.240;2022-09-17T19:48:33;16.70;99.90
22838;DHT22;11585;51.450;-0.240;2022-09-17T19:51:03;16.70;99.90
22838;DHT22;11585;51.450;-0.240;2022-09-17T19:53:30;16.70;99.90
22838;DHT22;11585;51.450;-0.240;2022-09-17T19:55:56;16.70;99.90
22838;DHT22;11585;51.450;-0.240;2022-09-17T19:58:21;16.70;99.90
22838;DHT22;11585;51.450;-0.240;2022-09-17T20:00:47;16.60;99.90
22838;DHT22;11585;51.450;-0.240;2022-09-17T20:03:18;16.60;99.90
22838;DHT22;11585;51.450;-0.240;2022-09-17T20:05:43;16.60;99.90
22838;DHT22;11585;51.450;-0.240;2022-09-17T20:08:09;16.60;99.90
22838;DHT22;11585;51.450;-0.240;2022-09-17T20:10:35;16.60;99.90
22838;DHT22;11585;51.450;-0.240;2022-09-17T20:13:02;16.50;99.90
22838;DHT22;11585;51.450;-0.240;2022-09-17T20:15:28;16.50;99.90
22838;DHT22;11585;51.450;-0.240;2022-09-17T20:17:53;16.50;99.90
22838;DHT22;11585;51.450;-0.240;2022-09-17T20:20:19;16.50;99.90
22838;DHT22;11585;51.450;-0.240;2022-09-17T20:22:45;16.50;99.90
22838;DHT22;11585;51.450;-0.240;2022-09-17T20:25:13;16.40;99.90
22838;DHT22;11585;51.450;-0.240;2022-09-17T20:27:40;16.40;99.90
22838;DHT22;11585;51.450;-0.240;2022-09-17T20:30:06;16.40;99.90
22838;DHT22;11585;51.450;-0.240;2022-09-17T20:32:32;16.40;99.90
22838;DHT22;11585;51.450;-0.240;2022-09-17T20:34:57;16.30;99.90
22838;DHT22;11585;51.450;-0.240;2022-09-17T20:37:24;16.30;99.90
22838;DHT22;11585;51.450;-0.240;2022-09-17T20:39:50;16.30;99.90
22838;DHT22;11585;51.450;-0.240;2022-09-17T20:42:15;16.30;99.90
22838;DHT22;11585;51.450;-0.240;2022-09-17T20:44:41;16.20;99.90
22838;DHT22;11585;51.450;-0.240;2022-09-17T20:47:07;16.20;99.90
22838;DHT22;11585;51.450;-0.240;2022-09-17T20:49:32;16.20;99.90
22838;DHT22;11585;51.450;-0.240;2022-09-17T20:51:58;16.20;99.90
22838;DHT22;11585;51.450;-0.240;2022-09-17T20:54:23;16.20;99.90
22838;DHT22;11585;51.450;-0.240;2022-09-17T20:56:49;16.10;99.90
22838;DHT22;11585;51.450;-0.240;2022-09-17T20:59:15;16.10;99.90
22838;DHT22;11585;51.450;-0.240;2022-09-17T21:01:47;16.10;99.90
22838;DHT22;11585;51.450;-0.240;2022-09-17T21:04:16;16.10;99.90
22838;DHT22;11585;51.450;-0.240;2022-09-17T21:06:44;16.00;99.90
22838;DHT22;11585;51.450;-0.240;2022-09-17T21:09:13;16.00;99.90
22838;DHT22;11585;51.450;-0.240;2022-09-17T21:11:43;16.00;99.90
22838;DHT22;11585;51.450;-0.240;2022-09-17T21:14:09;15.90;99.90
22838;DHT22;11585;51.450;-0.240;2022-09-17T21:16:36;15.90;99.90
22838;DHT22;11585;51.450;-0.240;2022-09-17T21:19:07;15.90;99.90
22838;DHT22;11585;51.450;-0.240;2022-09-17T21:21:33;15.90;99.90
22838;DHT22;11585;51.450;-0.240;2022-09-17T21:24:00;15.90;99.90
22838;DHT22;11585;51.450;-0.240;2022-09-17T21:26:26;15.90;99.90
22838;DHT22;11585;51.450;-0.240;2022-09-17T21:28:54;15.80;99.90
22838;DHT22;11585;51.450;-0.240;2022-09-17T21:31:27;15.80;99.90
22838;DHT22;11585;51.450;-0.240;2022-09-17T21:33:57;15.80;99.90
22838;DHT22;11585;51.450;-0.240;2022-09-17T21:36:29;15.80;99.90
22838;DHT22;11585;51.450;-0.240;2022-09-17T21:38:58;15.80;99.90
22838;DHT22;11585;51.450;-0.240;2022-09-17T21:41:25;15.70;99.90
22838;DHT22;11585;51.450;-0.240;2022-09-17T21:43:51;15.70;99.90
22838;DHT22;11585;51.450;-0.240;2022-09-17T21:46:27;15.70;99.90
22838;DHT22;11585;51.450;-0.240;2022-09-17T21:48:58;15.70;99.90
22838;DHT22;11585;51.450;-0.240;2022-09-17T21:51:28;15.60;99.90
22838;DHT22;11585;51.450;-0.240;2022-09-17T21:53:59;15.60;99.90
22838;DHT22;11585;51.450;-0.240;2022-09-17T21:56:26;15.60;99.90
22838;DHT22;11585;51.450;-0.240;2022-09-17T21:58:54;15.60;99.90
22838;DHT22;11585;51.450;-0.240;2022-09-17T22:01:27;15.60;99.90
22838;DHT22;11585;51.450;-0.240;2022-09-17T22:03:55;15.50;99.90
22838;DHT22;11585;51.450;-0.240;2022-09-17T22:06:24;15.50;99.90
22838;DHT22;11585;51.450;-0.240;2022-09-17T22:08:55;15.50;99.90
22838;DHT22;11585;51.450;-0.240;2022-09-17T22:11:32;15.50;99.90
22838;DHT22;11585;51.450;-0.240;2022-09-17T22:14:12;15.50;99.90
22838;DHT22;11585;51.450;-0.240;2022-09-17T22:16:43;15.50;99.90
22838;DHT22;11585;51.450;-0.240;2022-09-17T22:19:29;15.40;99.90
22838;DHT22;11585;51.450;-0.240;2022-09-17T22:21:55;15.40;99.90
22838;DHT22;11585;51.450;-0.240;2022-09-17T22:24:22;15.40;99.90
22838;DHT22;11585;51.450;-0.240;2022-09-17T22:26:50;15.40;99.90
22838;DHT22;11585;51.450;-0.240;2022-09-17T22:29:18;15.40;99.90
22838;DHT22;11585;51.450;-0.240;2022-09-17T22:31:45;15.40;99.90
22838;DHT22;11585;51.450;-0.240;2022-09-17T22:34:16;15.40;99.90
22838;DHT22;11585;51.450;-0.240;2022-09-17T22:36:42;15.40;99.90
22838;DHT22;11585;51.450;-0.240;2022-09-17T22:39:09;15.30;99.90
22838;DHT22;11585;51.450;-0.240;2022-09-17T22:41:37;15.30;99.90
22838;DHT22;11585;51.450;-0.240;2022-09-17T22:44:11;15.30;99.90
22838;DHT22;11585;51.450;-0.240;2022-09-17T22:46:38;15.30;99.90
22838;DHT22;11585;51.450;-0.240;2022-09-17T22:49:04;15.30;99.90
22838;DHT22;11585;51.450;-0.240;2022-09-17T22:51:30;15.20;99.90
22838;DHT22;11585;51.450;-0.240;2022-09-17T22:53:57;15.20;99.90
22838;DHT22;11585;51.450;-0.240;2022-09-17T22:56:23;15.20;99.90
22838;DHT22;11585;51.450;-0.240;2022-09-17T22:58:50;15.20;99.90
22838;DHT22;11585;51.450;-0.240;2022-09-17T23:01:27;15.20;99.90
22838;DHT22;11585;51.450;-0.240;2022-09-17T23:03:54;15.20;99.90
22838;DHT22;11585;51.450;-0.240;2022-09-17T23:06:23;15.10;99.90
22838;DHT22;11585;51.450;-0.240;2022-09-17T23:09:10;15.20;99.90
22838;DHT22;11585;51.450;-0.240;2022-09-17T23:11:37;15.10;99.90
22838;DHT22;11585;51.450;-0.240;2022-09-17T23:14:09;15.10;99.90
22838;DHT22;11585;51.450;-0.240;2022-09-17T23:16:41;15.10;99.90
22838;DHT22;11585;51.450;-0.240;2022-09-17T23:19:08;15.10;99.90
22838;DHT22;11585;51.450;-0.240;2022-09-17T23:21:34;15.10;99.90
22838;DHT22;11585;51.450;-0.240;2022-09-17T23:24:00;15.10;99.90
22838;DHT22;11585;51.450;-0.240;2022-09-17T23:26:26;15.10;99.90
22838;DHT22;11585;51.450;-0.240;2022-09-17T23:29:12;15.00;99.90
22838;DHT22;11585;51.450;-0.240;2022-09-17T23:31:38;15.00;99.90
22838;DHT22;11585;51.450;-0.240;2022-09-17T23:34:05;15.10;99.90
22838;DHT22;11585;51.450;-0.240;2022-09-17T23:36:35;15.00;99.90
22838;DHT22;11585;51.450;-0.240;2022-09-17T23:39:01;15.00;99.90
22838;DHT22;11585;51.450;-0.240;2022-09-17T23:41:32;15.00;99.90
22838;DHT22;11585;51.450;-0.240;2022-09-17T23:44:01;15.00;99.90
22838;DHT22;11585;51.450;-0.240;2022-09-17T23:46:29;15.00;99.90
22838;DHT22;11585;51.450;-0.240;2022-09-17T23:48:56;15.00;99.90
22838;DHT22;11585;51.450;-0.240;2022-09-17T23:51:24;15.00;99.90
22838;DHT22;11585;51.450;-0.240;2022-09-17T23:53:50;15.00;99.90
22838;DHT22;11585;51.450;-0.240;2022-09-17T23:56:18;15.00;99.90
22838;DHT22;11585;51.450;-0.240;2022-09-17T23:59:04;15.00;99.90
